createdAt,value
2018-05-15T00:01:34.454Z,6.90
2018-05-15T00:04:06.442Z,5.80
2018-05-15T00:06:34.509Z,4.60
2018-05-15T00:09:02.607Z,4.23
2018-05-15T00:11:31.450Z,3.90
2018-05-15T00:14:15.285Z,3.57
2018-05-15T00:16:43.357Z,4.00
2018-05-15T00:19:11.446Z,4.20
2018-05-15T00:21:40.654Z,4.70
2018-05-15T00:24:14.466Z,3.93
2018-05-15T00:26:42.533Z,4.03
2018-05-15T00:29:10.627Z,4.40
2018-05-15T00:31:39.474Z,4.17
2018-05-15T00:34:07.553Z,4.37
2018-05-15T00:36:35.650Z,4.27
2018-05-15T00:41:31.807Z,4.23
2018-05-15T00:44:05.685Z,4.80
2018-05-15T00:46:33.754Z,4.53
2018-05-15T00:49:01.827Z,4.90
2018-05-15T00:51:29.918Z,4.20
2018-05-15T00:53:58.005Z,5.13
2018-05-15T00:56:26.087Z,4.40
2018-05-15T00:58:54.158Z,5.03
2018-05-15T01:01:22.292Z,4.50
2018-05-15T01:04:03.226Z,4.47
2018-05-15T01:06:32.502Z,4.30
2018-05-15T01:09:00.617Z,4.60
2018-05-15T01:11:28.756Z,5.07
2018-05-15T01:13:56.878Z,4.63
2018-05-15T01:16:25.043Z,5.00
2018-05-15T01:18:53.158Z,4.93
2018-05-15T01:21:21.254Z,4.60
2018-05-15T01:23:50.289Z,4.73
2018-05-15T01:26:18.403Z,5.27
2018-05-15T01:28:46.504Z,4.60
2018-05-15T01:31:15.410Z,4.90
2018-05-15T01:34:06.442Z,4.90
2018-05-15T01:36:34.538Z,4.80
2018-05-15T01:39:03.373Z,4.80
2018-05-15T01:41:31.465Z,5.30
2018-05-15T01:44:06.582Z,5.47
2018-05-15T01:46:34.662Z,4.40
2018-05-15T01:49:02.733Z,5.40
2018-05-15T01:51:30.852Z,5.07
2018-05-15T01:54:00.630Z,5.67
2018-05-15T01:56:28.698Z,5.20
2018-05-15T01:58:56.782Z,4.80
2018-05-15T02:01:24.858Z,5.33
2018-05-15T02:03:53.939Z,5.23
2018-05-15T02:06:22.015Z,4.57
2018-05-15T02:08:50.086Z,5.13
2018-05-15T02:11:18.161Z,5.23
2018-05-15T02:13:51.738Z,4.97
2018-05-15T02:16:19.822Z,4.77
2018-05-15T02:18:47.901Z,5.57
2018-05-15T02:21:15.970Z,4.73
2018-05-15T02:23:44.058Z,5.17
2018-05-15T02:26:12.894Z,5.20
2018-05-15T02:28:40.998Z,5.33
2018-05-15T02:31:09.070Z,5.80
2018-05-15T02:33:39.126Z,5.30
2018-05-15T02:36:07.254Z,5.30
2018-05-15T02:38:35.418Z,4.97
2018-05-15T02:41:03.511Z,5.80
2018-05-15T02:43:31.706Z,5.67
2018-05-15T02:45:59.834Z,5.07
2018-05-15T02:48:27.952Z,4.90
2018-05-15T02:50:56.114Z,4.70
2018-05-15T02:53:25.906Z,5.00
2018-05-15T02:55:53.982Z,5.10
2018-05-15T02:58:22.054Z,5.70
2018-05-15T03:00:50.134Z,5.10
2018-05-15T03:03:18.208Z,5.40
2018-05-15T03:05:46.352Z,5.90
2018-05-15T03:08:15.279Z,6.10
2018-05-15T03:10:43.370Z,5.50
2018-05-15T03:13:12.442Z,5.47
2018-05-15T03:15:41.361Z,5.13
2018-05-15T03:18:09.466Z,5.30
2018-05-15T03:20:37.606Z,6.10
2018-05-15T03:23:23.851Z,6.60
2018-05-15T03:25:51.958Z,6.00
2018-05-15T03:28:20.106Z,6.47
2018-05-15T03:30:48.271Z,6.10
2018-05-15T03:33:16.460Z,6.33
2018-05-15T03:35:45.342Z,5.80
2018-05-15T03:38:13.439Z,5.90
2018-05-15T03:40:41.546Z,6.30
2018-05-15T03:43:27.267Z,5.90
2018-05-15T03:45:56.061Z,6.43
2018-05-15T03:48:24.147Z,6.17
2018-05-15T03:50:53.006Z,6.83
2018-05-15T03:53:33.295Z,6.43
2018-05-15T03:56:01.443Z,7.00
2018-05-15T03:58:29.544Z,6.37
2018-05-15T04:01:16.260Z,6.70
2018-05-15T04:04:04.322Z,6.77
2018-05-15T04:06:50.361Z,6.23
2018-05-15T04:09:18.463Z,7.00
2018-05-15T04:11:46.586Z,6.30
2018-05-15T04:14:14.717Z,7.07
2018-05-15T04:16:42.790Z,6.77
2018-05-15T04:19:10.877Z,6.90
2018-05-15T04:21:38.954Z,6.27
2018-05-15T04:24:07.985Z,7.20
2018-05-15T04:26:36.056Z,7.73
2018-05-15T04:29:04.138Z,7.63
2018-05-15T04:31:32.205Z,6.67
2018-05-15T04:34:08.038Z,6.77
2018-05-15T04:36:36.106Z,6.97
2018-05-15T04:41:32.262Z,7.50
2018-05-15T04:44:00.431Z,6.97
2018-05-15T04:46:29.199Z,6.87
2018-05-15T04:48:57.274Z,6.80
2018-05-15T04:51:25.358Z,6.60
2018-05-15T04:53:57.210Z,5.90
2018-05-15T04:56:25.294Z,6.30
2018-05-15T04:58:53.381Z,6.30
2018-05-15T05:01:22.219Z,5.93
2018-05-15T05:03:51.261Z,5.93
2018-05-15T05:06:19.339Z,5.43
2018-05-15T05:08:48.190Z,5.80
2018-05-15T05:11:16.274Z,5.63
2018-05-15T05:13:51.709Z,5.77
2018-05-15T05:16:19.786Z,5.50
2018-05-15T05:18:47.851Z,5.90
2018-05-15T05:21:15.941Z,6.33
2018-05-15T05:23:44.009Z,6.20
2018-05-15T05:26:12.090Z,5.23
2018-05-15T05:28:40.170Z,6.13
2018-05-15T05:31:08.251Z,5.80
2018-05-15T05:33:44.375Z,5.30
2018-05-15T05:36:12.453Z,5.23
2018-05-15T05:38:40.530Z,5.50
2018-05-15T05:41:08.606Z,5.10
2018-05-15T05:43:40.234Z,5.30
2018-05-15T05:46:08.312Z,5.20
2018-05-15T05:48:36.377Z,5.37
2018-05-15T05:51:04.486Z,5.40
2018-05-15T05:53:34.262Z,5.77
2018-05-15T05:56:02.349Z,5.10
2018-05-15T05:58:30.441Z,5.57
2018-05-15T06:00:59.291Z,5.10
2018-05-15T06:03:35.670Z,5.20
2018-05-15T06:06:03.753Z,5.40
2018-05-15T06:08:31.842Z,5.00
2018-05-15T06:11:00.693Z,5.40
2018-05-15T06:13:29.681Z,4.60
2018-05-15T06:15:57.754Z,5.20
2018-05-15T06:18:25.826Z,4.80
2018-05-15T06:20:53.967Z,4.73
2018-05-15T06:23:23.925Z,4.80
2018-05-15T06:25:51.997Z,5.13
2018-05-15T06:28:20.089Z,4.63
2018-05-15T06:30:48.929Z,4.73
2018-05-15T06:33:31.354Z,4.77
2018-05-15T06:35:59.443Z,4.47
2018-05-15T06:38:27.566Z,4.30
2018-05-15T06:40:55.583Z,4.63
2018-05-15T06:43:24.595Z,4.20
2018-05-15T06:45:52.664Z,4.40
2018-05-15T06:48:20.733Z,4.17
2018-05-15T06:50:49.574Z,4.23
2018-05-15T06:53:24.739Z,4.17
2018-05-15T06:55:52.814Z,4.27
2018-05-15T06:58:20.914Z,4.20
2018-05-15T07:00:49.746Z,3.77
2018-05-15T07:03:18.786Z,3.57
2018-05-15T07:05:46.863Z,3.70
2018-05-15T07:08:15.710Z,3.20
2018-05-15T07:10:43.777Z,3.40
2018-05-15T07:13:19.242Z,3.60
2018-05-15T07:15:47.311Z,3.70
2018-05-15T07:18:15.385Z,3.93
2018-05-15T07:20:43.476Z,3.80
2018-05-15T07:23:11.548Z,4.00
2018-05-15T07:25:39.631Z,4.10
2018-05-15T07:28:08.465Z,3.90
2018-05-15T07:30:36.544Z,3.90
2018-05-15T07:33:21.422Z,4.00
2018-05-15T07:35:49.518Z,3.97
2018-05-15T07:38:18.375Z,3.67
2018-05-15T07:40:46.453Z,3.93
2018-05-15T07:43:14.518Z,4.53
2018-05-15T07:45:42.597Z,4.17
2018-05-15T07:48:10.760Z,3.43
2018-05-15T07:50:38.757Z,3.90
2018-05-15T07:53:06.829Z,3.50
2018-05-15T07:55:34.910Z,3.60
2018-05-15T07:58:02.982Z,3.97
2018-05-15T08:00:31.062Z,4.10
2018-05-15T08:03:01.855Z,3.73
2018-05-15T08:05:29.946Z,3.80
2018-05-15T08:07:58.010Z,3.83
2018-05-15T08:10:26.091Z,3.80
2018-05-15T08:12:55.157Z,3.70
2018-05-15T08:15:23.238Z,3.97
2018-05-15T08:17:51.313Z,3.47
2018-05-15T08:20:19.409Z,3.93
2018-05-15T08:22:52.970Z,3.70
2018-05-15T08:25:21.063Z,3.50
2018-05-15T08:27:49.146Z,3.80
2018-05-15T08:30:17.210Z,4.20
2018-05-15T08:33:16.659Z,3.93
2018-05-15T08:35:44.744Z,3.43
2018-05-15T08:38:12.818Z,3.13
2018-05-15T08:40:40.896Z,3.67
2018-05-15T08:43:16.999Z,3.93
2018-05-15T08:45:45.862Z,3.70
2018-05-15T08:48:13.997Z,3.40
2018-05-15T08:50:42.110Z,3.60
2018-05-15T08:53:17.943Z,4.40
2018-05-15T08:55:46.171Z,3.20
2018-05-15T08:58:15.050Z,3.47
2018-05-15T09:00:43.155Z,4.07
2018-05-15T09:03:15.971Z,3.60
2018-05-15T09:05:44.041Z,4.53
2018-05-15T09:08:12.117Z,3.40
2018-05-15T09:10:40.318Z,3.60
2018-05-15T09:13:14.971Z,3.63
2018-05-15T09:15:43.065Z,3.30
2018-05-15T09:18:11.242Z,3.30
2018-05-15T09:20:39.287Z,3.33
2018-05-15T09:23:14.960Z,3.60
2018-05-15T09:25:43.050Z,3.83
2018-05-15T09:28:11.190Z,4.17
2018-05-15T09:30:39.307Z,3.53
2018-05-15T09:33:18.254Z,3.60
2018-05-15T09:35:46.342Z,3.40
2018-05-15T09:38:15.210Z,3.70
2018-05-15T09:40:43.310Z,4.07
2018-05-15T09:43:34.805Z,3.27
2018-05-15T09:46:02.918Z,3.70
2018-05-15T09:48:31.022Z,3.73
2018-05-15T09:50:59.227Z,3.70
2018-05-15T09:53:29.066Z,3.63
2018-05-15T09:55:57.239Z,3.60
2018-05-15T09:58:25.392Z,3.67
2018-05-15T10:00:53.567Z,3.20
2018-05-15T10:03:36.874Z,3.33
2018-05-15T10:06:05.055Z,3.17
2018-05-15T10:08:34.053Z,3.37
2018-05-15T10:11:03.026Z,3.00
2018-05-15T10:13:31.149Z,3.30
2018-05-15T10:15:59.298Z,3.23
2018-05-15T10:18:28.175Z,2.77
2018-05-15T10:20:56.277Z,3.00
2018-05-15T10:23:42.866Z,2.67
2018-05-15T10:26:11.050Z,3.27
2018-05-15T10:28:39.915Z,3.50
2018-05-15T10:31:08.076Z,3.20
2018-05-15T10:33:36.299Z,3.70
2018-05-15T10:36:04.478Z,3.53
2018-05-15T10:38:32.591Z,3.00
2018-05-15T10:41:00.736Z,3.40
2018-05-15T10:43:36.031Z,3.37
2018-05-15T10:46:04.961Z,3.20
2018-05-15T10:48:33.069Z,3.00
2018-05-15T10:51:01.214Z,3.20
2018-05-15T10:53:29.362Z,3.13
2018-05-15T10:55:57.558Z,3.23
2018-05-15T10:58:25.663Z,3.05
2018-05-15T11:00:53.803Z,3.25
2018-05-15T11:03:23.894Z,8.33
2018-05-15T11:05:52.051Z,2.90
2018-05-15T11:08:20.893Z,3.40
2018-05-15T11:10:48.967Z,3.47
2018-05-15T11:13:24.331Z,3.40
2018-05-15T11:15:52.415Z,3.80
2018-05-15T11:18:30.186Z,3.17
2018-05-15T11:21:16.097Z,3.20
2018-05-15T11:26:59.564Z,3.10
2018-05-15T11:29:28.403Z,3.37
2018-05-15T11:32:10.230Z,3.13
2018-05-15T11:34:38.298Z,3.27
2018-05-15T11:37:06.378Z,2.83
2018-05-15T11:39:34.453Z,3.37
2018-05-15T11:42:06.503Z,3.00
2018-05-15T11:44:34.575Z,2.97
2018-05-15T11:47:02.650Z,3.07
2018-05-15T11:49:31.512Z,3.23
2018-05-15T11:51:59.496Z,3.13
2018-05-15T11:54:27.658Z,2.90
2018-05-15T11:56:55.723Z,3.40
2018-05-15T11:59:23.798Z,3.40
2018-05-15T12:01:55.682Z,3.30
2018-05-15T12:04:23.757Z,3.33
2018-05-15T12:06:51.833Z,3.30
2018-05-15T12:09:28.353Z,2.93
2018-05-15T12:11:59.309Z,3.60
2018-05-15T12:14:27.410Z,3.30
2018-05-15T12:16:55.495Z,3.60
2018-05-15T12:19:24.363Z,3.50
2018-05-15T12:22:01.554Z,3.50
2018-05-15T12:24:29.769Z,3.67
2018-05-15T12:26:57.769Z,3.57
2018-05-15T12:29:25.850Z,3.33
2018-05-15T12:31:54.843Z,3.60
2018-05-15T12:34:22.926Z,3.30
2018-05-15T12:36:51.091Z,3.30
2018-05-15T12:39:19.170Z,3.27
2018-05-15T12:41:48.216Z,2.50
2018-05-15T12:44:16.225Z,3.30
2018-05-15T12:46:44.311Z,2.90
2018-05-15T12:49:12.411Z,3.03
2018-05-15T12:51:41.282Z,2.97
2018-05-15T12:54:09.508Z,3.37
2018-05-15T12:56:38.387Z,3.00
2018-05-15T12:59:06.550Z,2.73
2018-05-15T13:01:34.713Z,2.60
2018-05-15T13:04:08.048Z,2.67
2018-05-15T13:06:36.152Z,2.70
2018-05-15T13:11:32.394Z,2.75
2018-05-15T13:14:00.466Z,3.03
2018-05-15T13:16:28.599Z,2.58
2018-05-15T13:18:56.673Z,2.50
2018-05-15T13:21:25.538Z,2.40
2018-05-15T13:23:57.262Z,2.95
2018-05-15T13:26:25.345Z,2.67
2018-05-15T13:28:54.209Z,2.50
2018-05-15T13:31:22.289Z,3.28
2018-05-15T13:33:50.411Z,3.08
2018-05-15T13:36:18.558Z,3.37
2018-05-15T13:38:47.525Z,2.70
2018-05-15T13:41:15.541Z,2.83
2018-05-15T13:43:43.631Z,2.67
2018-05-15T13:46:11.703Z,3.10
2018-05-15T13:48:39.785Z,2.97
2018-05-15T13:51:07.871Z,3.00
2018-05-15T13:53:39.430Z,2.70
2018-05-15T13:56:07.498Z,2.70
2018-05-15T13:58:35.582Z,3.00
2018-05-15T14:01:03.667Z,3.25
2018-05-15T14:03:41.545Z,3.00
2018-05-15T14:06:09.618Z,2.92
2018-05-15T14:08:37.702Z,2.92
2018-05-15T14:11:05.773Z,2.55
2018-05-15T14:13:41.599Z,3.33
2018-05-15T14:16:09.666Z,3.10
2018-05-15T14:18:37.757Z,3.00
2018-05-15T14:21:05.826Z,3.27
2018-05-15T14:23:42.494Z,3.20
2018-05-15T14:26:10.569Z,3.27
2018-05-15T14:28:38.661Z,3.43
2018-05-15T14:31:07.501Z,3.90
2018-05-15T14:33:36.559Z,4.23
2018-05-15T14:36:04.719Z,3.80
2018-05-15T14:38:33.589Z,3.97
2018-05-15T14:41:01.691Z,3.97
2018-05-15T14:43:30.838Z,3.60
2018-05-15T14:45:58.994Z,3.83
2018-05-15T14:48:27.087Z,3.43
2018-05-15T14:54:09.981Z,3.60
2018-05-15T14:56:38.077Z,3.70
2018-05-15T14:59:06.156Z,3.83
2018-05-15T15:01:34.237Z,3.47
2018-05-15T15:04:03.254Z,3.53
2018-05-15T15:06:31.330Z,3.60
2018-05-15T15:08:59.445Z,3.60
2018-05-15T15:11:27.522Z,3.30
2018-05-15T15:13:56.547Z,3.53
2018-05-15T15:16:24.650Z,3.60
2018-05-15T15:18:52.693Z,3.07
2018-05-15T15:21:20.778Z,3.30
2018-05-15T15:23:56.406Z,3.70
2018-05-15T15:26:24.493Z,3.87
2018-05-15T15:28:52.565Z,4.00
2018-05-15T15:31:20.634Z,3.90
2018-05-15T15:33:54.106Z,3.80
2018-05-15T15:36:23.181Z,3.67
2018-05-15T15:38:51.246Z,3.80
2018-05-15T15:41:19.330Z,3.57
2018-05-15T15:43:48.353Z,4.00
2018-05-15T15:46:16.426Z,4.00
2018-05-15T15:48:44.499Z,4.30
2018-05-15T15:51:12.570Z,5.00
2018-05-15T15:53:41.558Z,4.17
2018-05-15T15:56:09.625Z,3.67
2018-05-15T15:58:37.748Z,4.00
2018-05-15T16:01:07.182Z,3.80
2018-05-15T16:04:00.270Z,3.13
2018-05-15T16:06:28.311Z,3.60
2018-05-15T16:08:56.386Z,3.03
2018-05-15T16:11:24.463Z,3.13
2018-05-15T16:13:52.557Z,3.40
2018-05-15T16:16:20.625Z,5.00
2018-05-15T16:18:48.700Z,5.40
2018-05-15T16:21:16.770Z,4.43
2018-05-15T16:23:44.857Z,3.60
2018-05-15T16:26:13.702Z,3.53
2018-05-15T16:28:41.839Z,3.13
2018-05-15T16:31:09.894Z,4.10
2018-05-15T16:33:39.686Z,3.17
2018-05-15T16:36:07.757Z,3.73
2018-05-15T16:38:35.834Z,4.10
2018-05-15T16:41:03.918Z,4.33
2018-05-15T16:43:34.741Z,4.13
2018-05-15T16:46:02.806Z,3.90
2018-05-15T16:48:30.885Z,3.80
2018-05-15T16:50:58.962Z,4.20
2018-05-15T16:53:27.128Z,4.20
2018-05-15T16:55:55.885Z,3.73
2018-05-15T16:58:23.955Z,4.30
2018-05-15T17:00:52.034Z,4.47
2018-05-15T17:03:23.588Z,3.53
2018-05-15T17:05:51.670Z,3.57
2018-05-15T17:08:19.752Z,3.37
2018-05-15T17:10:47.862Z,3.80
2018-05-15T17:13:17.934Z,3.63
2018-05-15T17:15:46.001Z,3.40
2018-05-15T17:18:14.070Z,3.70
2018-05-15T17:20:42.154Z,3.73
2018-05-15T17:23:11.126Z,3.63
2018-05-15T17:25:39.236Z,4.00
2018-05-15T17:28:07.310Z,3.60
2018-05-15T17:30:36.167Z,4.00
2018-05-15T17:33:11.599Z,3.73
2018-05-15T17:35:39.688Z,3.40
2018-05-15T17:38:07.763Z,3.57
2018-05-15T17:40:35.833Z,4.10
2018-05-15T17:43:03.933Z,4.67
2018-05-15T17:45:32.773Z,4.20
2018-05-15T17:48:00.854Z,4.43
2018-05-15T17:50:28.938Z,6.07
2018-05-15T17:52:58.029Z,5.23
2018-05-15T17:55:26.122Z,4.70
2018-05-15T17:57:55.002Z,5.03
2018-05-15T18:00:23.119Z,5.17
2018-05-15T18:02:59.454Z,5.10
2018-05-15T18:05:27.548Z,5.63
2018-05-15T18:07:55.662Z,5.30
2018-05-15T18:10:23.751Z,5.30
2018-05-15T18:12:51.850Z,5.63
2018-05-15T18:15:19.948Z,5.17
2018-05-15T18:17:48.002Z,5.40
2018-05-15T18:20:16.086Z,4.63
2018-05-15T18:22:45.114Z,4.73
2018-05-15T18:25:13.186Z,4.70
2018-05-15T18:27:41.275Z,5.30
2018-05-15T18:30:09.343Z,4.20
2018-05-15T18:32:44.974Z,4.30
2018-05-15T18:35:21.657Z,4.10
2018-05-15T18:37:49.733Z,4.83
2018-05-15T18:40:18.958Z,4.50
2018-05-15T18:42:55.198Z,4.57
2018-05-15T18:45:23.334Z,4.20
2018-05-15T18:47:51.342Z,4.57
2018-05-15T18:50:19.423Z,4.40
2018-05-15T18:52:57.310Z,4.40
2018-05-15T18:55:25.385Z,4.77
2018-05-15T18:57:53.475Z,3.83
2018-05-15T19:00:22.334Z,4.80
2018-05-15T19:02:50.405Z,4.37
2018-05-15T19:05:18.477Z,4.63
2018-05-15T19:07:46.546Z,4.30
2018-05-15T19:10:14.626Z,4.67
2018-05-15T19:12:50.247Z,4.70
2018-05-15T19:15:18.329Z,4.20
2018-05-15T19:17:46.396Z,3.87
2018-05-15T19:20:14.479Z,4.40
2018-05-15T19:22:44.482Z,4.03
2018-05-15T19:25:12.570Z,4.20
2018-05-15T19:27:40.643Z,4.37
2018-05-15T19:30:08.718Z,3.87
2018-05-15T19:32:44.138Z,4.20
2018-05-15T19:38:09.345Z,3.60
2018-05-15T19:40:51.135Z,3.87
2018-05-15T19:43:21.174Z,3.93
2018-05-15T19:45:49.254Z,4.20
2018-05-15T19:48:17.321Z,4.10
2018-05-15T19:50:45.402Z,3.93
2018-05-15T19:53:21.145Z,4.33
2018-05-15T19:55:49.235Z,4.27
2018-05-15T19:58:17.309Z,4.23
2018-05-15T20:00:45.393Z,4.33
2018-05-15T20:03:21.950Z,4.07
2018-05-15T20:05:50.034Z,4.43
2018-05-15T20:08:18.933Z,4.27
2018-05-15T20:10:47.810Z,4.20
2018-05-15T20:13:17.638Z,4.73
2018-05-15T20:15:45.735Z,4.40
2018-05-15T20:18:13.830Z,4.57
2018-05-15T20:20:42.007Z,5.40
2018-05-15T20:23:22.499Z,4.70
2018-05-15T20:25:51.394Z,4.83
2018-05-15T20:28:20.306Z,5.20
2018-05-15T20:30:48.454Z,5.77
2018-05-15T20:33:25.919Z,5.93
2018-05-15T20:35:54.058Z,5.50
2018-05-15T20:38:22.218Z,4.93
2018-05-15T20:40:50.362Z,4.83
2018-05-15T20:43:18.470Z,5.60
2018-05-15T20:45:46.618Z,6.53
2018-05-15T20:48:15.507Z,5.10
2018-05-15T20:50:44.366Z,5.37
2018-05-15T20:53:15.946Z,5.27
2018-05-15T20:55:44.798Z,5.83
2018-05-15T20:58:12.942Z,5.10
2018-05-15T21:00:41.112Z,5.60
2018-05-15T21:03:31.625Z,5.40
2018-05-15T21:05:59.710Z,5.70
2018-05-15T21:08:27.790Z,5.43
2018-05-15T21:10:55.854Z,5.13
2018-05-15T21:13:24.854Z,4.80
2018-05-15T21:15:52.933Z,4.67
2018-05-15T21:18:21.015Z,5.10
2018-05-15T21:20:49.094Z,4.97
2018-05-15T21:23:45.026Z,4.83
2018-05-15T21:26:13.861Z,5.70
2018-05-15T21:28:41.935Z,4.90
2018-05-15T21:31:10.010Z,4.87
2018-05-15T21:33:38.098Z,4.73
2018-05-15T21:36:06.179Z,5.33
2018-05-15T21:38:34.338Z,5.43
2018-05-15T21:41:02.456Z,5.77
2018-05-15T21:43:30.566Z,6.03
2018-05-15T21:45:58.665Z,5.17
2018-05-15T21:48:26.755Z,6.13
2018-05-15T21:50:55.619Z,5.13
2018-05-15T21:53:32.231Z,5.63
2018-05-15T21:56:01.126Z,5.93
2018-05-15T21:58:29.278Z,6.10
2018-05-15T22:00:58.125Z,5.37
2018-05-15T22:03:35.241Z,5.27
2018-05-15T22:06:03.322Z,5.23
2018-05-15T22:08:32.162Z,5.47
2018-05-15T22:11:13.897Z,5.03
2018-05-15T22:14:20.982Z,5.37
2018-05-15T22:17:06.842Z,5.40
2018-05-15T22:19:52.825Z,5.63
2018-05-15T22:22:21.104Z,6.30
2018-05-15T22:24:49.194Z,6.47
2018-05-15T22:27:17.270Z,6.00
2018-05-15T22:29:45.337Z,5.87
2018-05-15T22:32:41.998Z,6.53
2018-05-15T22:35:10.074Z,5.10
2018-05-15T22:37:38.926Z,5.50
2018-05-15T22:40:06.995Z,5.83
2018-05-15T22:42:53.894Z,5.67
2018-05-15T22:45:21.966Z,5.13
2018-05-15T22:47:50.050Z,5.30
2018-05-15T22:50:18.125Z,5.20
2018-05-15T22:52:46.210Z,4.93
2018-05-15T22:55:14.285Z,4.80
2018-05-15T22:57:42.361Z,5.07
2018-05-15T23:00:10.434Z,4.83
2018-05-15T23:02:38.518Z,4.50
2018-05-15T23:05:07.359Z,5.33
2018-05-15T23:07:35.441Z,5.37
2018-05-15T23:10:03.522Z,4.93
2018-05-15T23:12:31.601Z,4.53
2018-05-15T23:14:59.677Z,4.73
2018-05-15T23:17:27.750Z,4.23
2018-05-15T23:19:55.851Z,4.57
2018-05-15T23:22:41.953Z,4.60
2018-05-15T23:25:10.039Z,4.63
2018-05-15T23:27:38.109Z,4.60
2018-05-15T23:30:06.198Z,4.57
2018-05-15T23:32:48.249Z,4.20
2018-05-15T23:35:17.098Z,5.00
2018-05-15T23:37:45.167Z,5.10
2018-05-15T23:40:13.241Z,4.20
2018-05-15T23:42:48.885Z,5.17
2018-05-15T23:45:16.978Z,4.67
2018-05-15T23:47:46.022Z,5.00
2018-05-15T23:50:14.101Z,5.40
2018-05-15T23:52:49.881Z,4.70
2018-05-15T23:55:17.962Z,5.90
2018-05-15T23:57:46.033Z,5.70
